sensor_id;sensor_type;location;lat;lon;timestamp;temperature;humidity
285;DHT22;127;48.770;9.212;2022-09-09T00:00:32;16.10;99.90
285;DHT22;127;48.770;9.212;2022-09-09T00:03:08;16.10;99.90
285;DHT22;127;48.770;9.212;2022-09-09T00:05:42;16.20;99.90
285;DHT22;127;48.770;9.212;2022-09-09T00:08:19;16.20;99.90
285;DHT22;127;48.770;9.212;2022-09-09T00:10:53;16.20;99.90
285;DHT22;127;48.770;9.212;2022-09-09T00:13:28;16.10;99.90
285;DHT22;127;48.770;9.212;2022-09-09T00:16:01;16.10;99.90
285;DHT22;127;48.770;9.212;2022-09-09T00:18:52;16.20;99.90
285;DHT22;127;48.770;9.212;2022-09-09T00:21:28;16.20;99.90
285;DHT22;127;48.770;9.212;2022-09-09T00:23:58;16.30;99.90
285;DHT22;127;48.770;9.212;2022-09-09T00:26:32;16.40;99.90
285;DHT22;127;48.770;9.212;2022-09-09T00:29:10;16.50;99.90
285;DHT22;127;48.770;9.212;2022-09-09T00:31:42;16.60;99.90
285;DHT22;127;48.770;9.212;2022-09-09T00:34:19;16.70;99.90
285;DHT22;127;48.770;9.212;2022-09-09T00:36:50;16.70;99.90
285;DHT22;127;48.770;9.212;2022-09-09T00:39:27;16.80;99.90
285;DHT22;127;48.770;9.212;2022-09-09T00:42:12;16.90;99.90
285;DHT22;127;48.770;9.212;2022-09-09T00:44:51;17.00;99.90
285;DHT22;127;48.770;9.212;2022-09-09T00:47:39;17.00;99.90
285;DHT22;127;48.770;9.212;2022-09-09T00:50:20;17.10;99.90
285;DHT22;127;48.770;9.212;2022-09-09T00:52:59;17.20;99.90
285;DHT22;127;48.770;9.212;2022-09-09T00:55:34;17.20;99.90
285;DHT22;127;48.770;9.212;2022-09-09T00:58:09;17.30;99.90
285;DHT22;127;48.770;9.212;2022-09-09T01:00:42;17.30;99.90
285;DHT22;127;48.770;9.212;2022-09-09T01:03:21;17.30;99.90
285;DHT22;127;48.770;9.212;2022-09-09T01:06:01;17.30;99.90
285;DHT22;127;48.770;9.212;2022-09-09T01:08:42;17.20;99.90
285;DHT22;127;48.770;9.212;2022-09-09T01:11:20;17.20;99.90
285;DHT22;127;48.770;9.212;2022-09-09T01:13:56;17.20;99.90
285;DHT22;127;48.770;9.212;2022-09-09T01:16:30;17.10;99.90
285;DHT22;127;48.770;9.212;2022-09-09T01:19:00;17.20;99.90
285;DHT22;127;48.770;9.212;2022-09-09T01:21:38;17.20;99.90
285;DHT22;127;48.770;9.212;2022-09-09T01:24:20;17.20;99.90
285;DHT22;127;48.770;9.212;2022-09-09T01:26:55;17.20;99.90
285;DHT22;127;48.770;9.212;2022-09-09T01:29:24;17.10;99.90
285;DHT22;127;48.770;9.212;2022-09-09T01:31:55;17.10;99.90
285;DHT22;127;48.770;9.212;2022-09-09T01:34:25;17.00;99.90
285;DHT22;127;48.770;9.212;2022-09-09T01:36:58;17.00;99.90
285;DHT22;127;48.770;9.212;2022-09-09T01:39:28;17.10;99.90
285;DHT22;127;48.770;9.212;2022-09-09T01:41:59;17.10;99.90
285;DHT22;127;48.770;9.212;2022-09-09T01:44:30;17.10;99.90
285;DHT22;127;48.770;9.212;2022-09-09T01:46:59;17.10;99.90
285;DHT22;127;48.770;9.212;2022-09-09T01:49:28;17.20;99.90
285;DHT22;127;48.770;9.212;2022-09-09T01:51:58;17.20;99.90
285;DHT22;127;48.770;9.212;2022-09-09T01:54:30;17.20;99.90
285;DHT22;127;48.770;9.212;2022-09-09T01:57:08;17.20;99.90
285;DHT22;127;48.770;9.212;2022-09-09T01:59:48;17.20;99.90
285;DHT22;127;48.770;9.212;2022-09-09T02:02:25;17.20;99.90
285;DHT22;127;48.770;9.212;2022-09-09T02:05:02;17.10;99.90
285;DHT22;127;48.770;9.212;2022-09-09T02:07:38;17.10;99.90
285;DHT22;127;48.770;9.212;2022-09-09T02:10:12;17.10;99.90
285;DHT22;127;48.770;9.212;2022-09-09T02:12:48;17.20;99.90
285;DHT22;127;48.770;9.212;2022-09-09T02:15:21;17.10;99.90
285;DHT22;127;48.770;9.212;2022-09-09T02:17:52;17.10;99.90
285;DHT22;127;48.770;9.212;2022-09-09T02:20:23;17.10;99.90
285;DHT22;127;48.770;9.212;2022-09-09T02:22:54;17.10;99.90
285;DHT22;127;48.770;9.212;2022-09-09T02:25:26;17.00;99.90
285;DHT22;127;48.770;9.212;2022-09-09T02:27:59;16.90;99.90
285;DHT22;127;48.770;9.212;2022-09-09T02:30:29;16.80;99.90
285;DHT22;127;48.770;9.212;2022-09-09T02:33:02;16.70;99.90
285;DHT22;127;48.770;9.212;2022-09-09T02:35:32;16.60;99.90
285;DHT22;127;48.770;9.212;2022-09-09T02:38:06;16.40;99.90
285;DHT22;127;48.770;9.212;2022-09-09T02:40:36;16.40;99.90
285;DHT22;127;48.770;9.212;2022-09-09T02:43:07;16.20;99.90
285;DHT22;127;48.770;9.212;2022-09-09T02:45:41;16.20;99.90
285;DHT22;127;48.770;9.212;2022-09-09T02:48:14;16.10;99.90
285;DHT22;127;48.770;9.212;2022-09-09T02:50:53;16.10;99.90
285;DHT22;127;48.770;9.212;2022-09-09T02:53:26;16.00;99.90
285;DHT22;127;48.770;9.212;2022-09-09T02:56:03;16.00;99.90
285;DHT22;127;48.770;9.212;2022-09-09T02:58:39;15.90;99.90
285;DHT22;127;48.770;9.212;2022-09-09T03:01:08;15.70;99.90
285;DHT22;127;48.770;9.212;2022-09-09T03:03:37;15.70;99.90
285;DHT22;127;48.770;9.212;2022-09-09T03:06:07;15.70;99.90
285;DHT22;127;48.770;9.212;2022-09-09T03:08:37;15.70;99.90
285;DHT22;127;48.770;9.212;2022-09-09T03:11:06;15.70;99.90
285;DHT22;127;48.770;9.212;2022-09-09T03:13:38;15.70;99.90
285;DHT22;127;48.770;9.212;2022-09-09T03:16:06;15.70;99.90
285;DHT22;127;48.770;9.212;2022-09-09T03:18:35;15.80;99.90
285;DHT22;127;48.770;9.212;2022-09-09T03:21:04;15.90;99.90
285;DHT22;127;48.770;9.212;2022-09-09T03:23:32;16.00;99.90
285;DHT22;127;48.770;9.212;2022-09-09T03:26:01;16.00;99.90
285;DHT22;127;48.770;9.212;2022-09-09T03:28:29;16.00;99.90
285;DHT22;127;48.770;9.212;2022-09-09T03:31:02;16.00;99.90
285;DHT22;127;48.770;9.212;2022-09-09T03:33:31;16.00;99.90
285;DHT22;127;48.770;9.212;2022-09-09T03:36:02;16.10;99.90
285;DHT22;127;48.770;9.212;2022-09-09T03:38:31;16.10;99.90
285;DHT22;127;48.770;9.212;2022-09-09T03:41:00;16.20;99.90
285;DHT22;127;48.770;9.212;2022-09-09T03:43:31;16.10;99.90
285;DHT22;127;48.770;9.212;2022-09-09T03:46:02;16.20;99.90
285;DHT22;127;48.770;9.212;2022-09-09T03:48:31;16.30;99.90
285;DHT22;127;48.770;9.212;2022-09-09T03:50:59;16.20;99.90
285;DHT22;127;48.770;9.212;2022-09-09T03:53:29;16.20;99.90
285;DHT22;127;48.770;9.212;2022-09-09T03:55:58;16.20;99.90
285;DHT22;127;48.770;9.212;2022-09-09T03:58:28;16.20;99.90
285;DHT22;127;48.770;9.212;2022-09-09T04:00:58;16.20;99.90
285;DHT22;127;48.770;9.212;2022-09-09T04:03:30;16.20;99.90
285;DHT22;127;48.770;9.212;2022-09-09T04:06:00;16.20;99.90
285;DHT22;127;48.770;9.212;2022-09-09T04:08:30;16.30;99.90
285;DHT22;127;48.770;9.212;2022-09-09T04:10:59;16.30;99.90
285;DHT22;127;48.770;9.212;2022-09-09T04:13:31;16.30;99.90
285;DHT22;127;48.770;9.212;2022-09-09T04:16:02;16.30;99.90
285;DHT22;127;48.770;9.212;2022-09-09T04:18:34;16.10;99.90
285;DHT22;127;48.770;9.212;2022-09-09T04:21:03;16.00;99.90
285;DHT22;127;48.770;9.212;2022-09-09T04:23:32;15.90;99.90
285;DHT22;127;48.770;9.212;2022-09-09T04:26:02;15.70;99.90
285;DHT22;127;48.770;9.212;2022-09-09T04:28:33;15.50;99.90
285;DHT22;127;48.770;9.212;2022-09-09T04:31:05;15.50;99.90
285;DHT22;127;48.770;9.212;2022-09-09T04:33:37;15.50;99.90
285;DHT22;127;48.770;9.212;2022-09-09T04:36:06;15.50;99.90
285;DHT22;127;48.770;9.212;2022-09-09T04:38:35;15.50;99.90
285;DHT22;127;48.770;9.212;2022-09-09T04:41:04;15.50;99.90
285;DHT22;127;48.770;9.212;2022-09-09T04:43:34;15.60;99.90
285;DHT22;127;48.770;9.212;2022-09-09T04:46:03;15.60;99.90
285;DHT22;127;48.770;9.212;2022-09-09T04:48:32;15.50;99.90
285;DHT22;127;48.770;9.212;2022-09-09T04:51:05;15.40;99.90
285;DHT22;127;48.770;9.212;2022-09-09T04:53:34;15.40;99.90
285;DHT22;127;48.770;9.212;2022-09-09T04:56:04;15.40;99.90
285;DHT22;127;48.770;9.212;2022-09-09T04:58:35;15.30;99.90
285;DHT22;127;48.770;9.212;2022-09-09T05:01:06;15.30;99.90
285;DHT22;127;48.770;9.212;2022-09-09T05:03:34;15.30;99.90
285;DHT22;127;48.770;9.212;2022-09-09T05:06:07;15.30;99.90
285;DHT22;127;48.770;9.212;2022-09-09T05:08:36;15.30;99.90
285;DHT22;127;48.770;9.212;2022-09-09T05:11:16;15.30;99.90
285;DHT22;127;48.770;9.212;2022-09-09T05:13:45;15.40;99.90
285;DHT22;127;48.770;9.212;2022-09-09T05:16:16;15.40;99.90
285;DHT22;127;48.770;9.212;2022-09-09T05:18:45;15.50;99.90
285;DHT22;127;48.770;9.212;2022-09-09T05:21:18;15.50;99.90
285;DHT22;127;48.770;9.212;2022-09-09T05:23:48;15.60;99.90
285;DHT22;127;48.770;9.212;2022-09-09T05:26:18;15.70;99.90
285;DHT22;127;48.770;9.212;2022-09-09T05:28:48;15.80;99.90
285;DHT22;127;48.770;9.212;2022-09-09T05:31:18;15.90;99.90
285;DHT22;127;48.770;9.212;2022-09-09T05:33:47;15.90;99.90
285;DHT22;127;48.770;9.212;2022-09-09T05:36:20;16.00;99.90
285;DHT22;127;48.770;9.212;2022-09-09T05:38:49;16.00;99.90
285;DHT22;127;48.770;9.212;2022-09-09T05:41:19;16.10;99.90
285;DHT22;127;48.770;9.212;2022-09-09T05:43:48;16.20;99.90
285;DHT22;127;48.770;9.212;2022-09-09T05:46:19;16.20;99.90
285;DHT22;127;48.770;9.212;2022-09-09T05:48:49;16.30;99.90
285;DHT22;127;48.770;9.212;2022-09-09T05:51:23;16.40;99.90
285;DHT22;127;48.770;9.212;2022-09-09T05:53:53;16.40;99.90
285;DHT22;127;48.770;9.212;2022-09-09T05:56:25;16.50;99.90
285;DHT22;127;48.770;9.212;2022-09-09T05:58:55;16.50;99.90
285;DHT22;127;48.770;9.212;2022-09-09T06:01:27;16.60;99.90
285;DHT22;127;48.770;9.212;2022-09-09T06:03:56;16.70;99.90
285;DHT22;127;48.770;9.212;2022-09-09T06:06:31;16.70;99.90
285;DHT22;127;48.770;9.212;2022-09-09T06:09:03;16.70;99.90
285;DHT22;127;48.770;9.212;2022-09-09T06:11:36;16.70;99.90
285;DHT22;127;48.770;9.212;2022-09-09T06:14:05;16.60;99.90
285;DHT22;127;48.770;9.212;2022-09-09T06:16:34;16.50;99.90
285;DHT22;127;48.770;9.212;2022-09-09T06:19:03;16.50;99.90
285;DHT22;127;48.770;9.212;2022-09-09T06:21:36;16.50;99.90
285;DHT22;127;48.770;9.212;2022-09-09T06:24:06;16.40;99.90
285;DHT22;127;48.770;9.212;2022-09-09T06:26:37;16.50;99.90
285;DHT22;127;48.770;9.212;2022-09-09T06:29:07;16.30;99.90
285;DHT22;127;48.770;9.212;2022-09-09T06:31:36;16.30;99.90
285;DHT22;127;48.770;9.212;2022-09-09T06:34:08;16.30;99.90
285;DHT22;127;48.770;9.212;2022-09-09T06:36:40;16.30;99.90
285;DHT22;127;48.770;9.212;2022-09-09T06:39:08;16.40;99.90
285;DHT22;127;48.770;9.212;2022-09-09T06:41:37;16.50;99.90
285;DHT22;127;48.770;9.212;2022-09-09T06:44:06;16.60;99.90
285;DHT22;127;48.770;9.212;2022-09-09T06:46:37;16.70;99.90
285;DHT22;127;48.770;9.212;2022-09-09T06:49:05;16.70;99.90
285;DHT22;127;48.770;9.212;2022-09-09T06:51:36;16.80;99.90
285;DHT22;127;48.770;9.212;2022-09-09T06:54:11;16.80;99.90
285;DHT22;127;48.770;9.212;2022-09-09T06:56:41;17.00;99.90
285;DHT22;127;48.770;9.212;2022-09-09T06:59:11;17.20;99.90
285;DHT22;127;48.770;9.212;2022-09-09T07:01:41;17.20;99.90
285;DHT22;127;48.770;9.212;2022-09-09T07:04:11;17.30;99.90
285;DHT22;127;48.770;9.212;2022-09-09T07:06:41;17.40;99.90
285;DHT22;127;48.770;9.212;2022-09-09T07:09:14;17.70;99.90
285;DHT22;127;48.770;9.212;2022-09-09T07:11:45;17.80;99.90
285;DHT22;127;48.770;9.212;2022-09-09T07:14:14;18.00;99.90
285;DHT22;127;48.770;9.212;2022-09-09T07:16:43;18.20;99.90
285;DHT22;127;48.770;9.212;2022-09-09T07:19:13;18.30;99.90
285;DHT22;127;48.770;9.212;2022-09-09T07:21:42;18.40;99.90
285;DHT22;127;48.770;9.212;2022-09-09T07:24:14;18.40;99.90
285;DHT22;127;48.770;9.212;2022-09-09T07:26:42;18.60;99.90
285;DHT22;127;48.770;9.212;2022-09-09T07:29:11;18.70;99.90
285;DHT22;127;48.770;9.212;2022-09-09T07:31:41;18.80;99.90
285;DHT22;127;48.770;9.212;2022-09-09T07:34:09;18.70;99.90
285;DHT22;127;48.770;9.212;2022-09-09T07:36:40;18.80;99.90
285;DHT22;127;48.770;9.212;2022-09-09T07:39:10;18.80;99.90
285;DHT22;127;48.770;9.212;2022-09-09T07:41:44;18.80;99.90
285;DHT22;127;48.770;9.212;2022-09-09T07:44:14;18.80;99.90
285;DHT22;127;48.770;9.212;2022-09-09T07:46:44;18.90;99.90
285;DHT22;127;48.770;9.212;2022-09-09T07:49:13;19.70;99.90
285;DHT22;127;48.770;9.212;2022-09-09T07:51:45;20.50;99.90
285;DHT22;127;48.770;9.212;2022-09-09T07:54:17;20.80;99.90
285;DHT22;127;48.770;9.212;2022-09-09T07:56:51;20.60;99.90
285;DHT22;127;48.770;9.212;2022-09-09T07:59:20;21.20;99.90
285;DHT22;127;48.770;9.212;2022-09-09T08:01:51;21.10;99.90
285;DHT22;127;48.770;9.212;2022-09-09T08:04:21;21.60;99.90
285;DHT22;127;48.770;9.212;2022-09-09T08:06:52;22.20;99.90
285;DHT22;127;48.770;9.212;2022-09-09T08:09:21;22.30;99.90
285;DHT22;127;48.770;9.212;2022-09-09T08:11:53;23.90;99.90
285;DHT22;127;48.770;9.212;2022-09-09T08:14:22;24.10;99.90
285;DHT22;127;48.770;9.212;2022-09-09T08:16:51;24.70;99.90
285;DHT22;127;48.770;9.212;2022-09-09T08:19:20;24.20;99.90
285;DHT22;127;48.770;9.212;2022-09-09T08:21:49;24.90;99.90
285;DHT22;127;48.770;9.212;2022-09-09T08:24:17;24.90;99.90
285;DHT22;127;48.770;9.212;2022-09-09T08:26:47;24.50;99.90
285;DHT22;127;48.770;9.212;2022-09-09T08:29:19;24.30;99.90
285;DHT22;127;48.770;9.212;2022-09-09T08:31:50;24.70;99.90
285;DHT22;127;48.770;9.212;2022-09-09T08:34:20;25.30;99.90
285;DHT22;127;48.770;9.212;2022-09-09T08:36:49;26.00;99.90
285;DHT22;127;48.770;9.212;2022-09-09T08:39:19;25.10;99.90
285;DHT22;127;48.770;9.212;2022-09-09T08:42:15;26.00;99.90
285;DHT22;127;48.770;9.212;2022-09-09T08:47:58;28.20;99.90
285;DHT22;127;48.770;9.212;2022-09-09T08:50:32;27.30;99.90
285;DHT22;127;48.770;9.212;2022-09-09T08:53:10;26.20;99.90
285;DHT22;127;48.770;9.212;2022-09-09T08:55:44;27.50;99.90
285;DHT22;127;48.770;9.212;2022-09-09T08:58:15;26.40;99.90
285;DHT22;127;48.770;9.212;2022-09-09T09:01:09;26.80;99.90
285;DHT22;127;48.770;9.212;2022-09-09T09:03:50;25.90;99.90
285;DHT22;127;48.770;9.212;2022-09-09T09:06:29;25.70;99.90
285;DHT22;127;48.770;9.212;2022-09-09T09:09:05;27.20;99.90
285;DHT22;127;48.770;9.212;2022-09-09T09:11:37;28.00;99.90
285;DHT22;127;48.770;9.212;2022-09-09T09:14:10;27.80;99.90
285;DHT22;127;48.770;9.212;2022-09-09T09:16:50;26.50;99.90
285;DHT22;127;48.770;9.212;2022-09-09T09:19:20;25.30;99.90
285;DHT22;127;48.770;9.212;2022-09-09T09:21:54;24.60;99.90
285;DHT22;127;48.770;9.212;2022-09-09T09:24:36;23.80;99.90
285;DHT22;127;48.770;9.212;2022-09-09T09:27:12;23.30;99.90
285;DHT22;127;48.770;9.212;2022-09-09T09:29:42;22.40;99.90
285;DHT22;127;48.770;9.212;2022-09-09T09:32:18;21.70;99.90
285;DHT22;127;48.770;9.212;2022-09-09T09:34:49;20.70;99.90
285;DHT22;127;48.770;9.212;2022-09-09T09:37:26;19.40;99.90
285;DHT22;127;48.770;9.212;2022-09-09T09:39:55;18.20;99.90
285;DHT22;127;48.770;9.212;2022-09-09T09:42:24;17.30;99.90
285;DHT22;127;48.770;9.212;2022-09-09T09:44:53;17.50;99.90
285;DHT22;127;48.770;9.212;2022-09-09T09:47:24;18.90;99.90
285;DHT22;127;48.770;9.212;2022-09-09T09:49:53;20.30;99.90
285;DHT22;127;48.770;9.212;2022-09-09T09:52:26;21.40;99.90
285;DHT22;127;48.770;9.212;2022-09-09T09:54:57;22.50;99.90
285;DHT22;127;48.770;9.212;2022-09-09T09:57:28;23.00;99.90
285;DHT22;127;48.770;9.212;2022-09-09T10:00:01;24.10;99.90
285;DHT22;127;48.770;9.212;2022-09-09T10:02:41;25.80;99.90
285;DHT22;127;48.770;9.212;2022-09-09T10:05:14;25.70;99.90
285;DHT22;127;48.770;9.212;2022-09-09T10:07:44;25.90;99.90
285;DHT22;127;48.770;9.212;2022-09-09T10:10:18;26.90;99.90
285;DHT22;127;48.770;9.212;2022-09-09T10:12:57;27.40;99.90
285;DHT22;127;48.770;9.212;2022-09-09T10:15:35;27.60;99.90
285;DHT22;127;48.770;9.212;2022-09-09T10:21:18;28.90;99.90
285;DHT22;127;48.770;9.212;2022-09-09T10:24:01;29.50;99.90
285;DHT22;127;48.770;9.212;2022-09-09T10:26:40;30.40;99.90
285;DHT22;127;48.770;9.212;2022-09-09T10:29:29;30.40;99.90
285;DHT22;127;48.770;9.212;2022-09-09T10:32:15;30.00;99.90
285;DHT22;127;48.770;9.212;2022-09-09T10:34:56;30.80;99.90
285;DHT22;127;48.770;9.212;2022-09-09T10:37:41;29.70;99.90
285;DHT22;127;48.770;9.212;2022-09-09T10:40:28;29.90;99.90
285;DHT22;127;48.770;9.212;2022-09-09T10:43:09;31.20;99.90
285;DHT22;127;48.770;9.212;2022-09-09T10:45:49;30.80;99.90
285;DHT22;127;48.770;9.212;2022-09-09T10:48:31;30.20;99.90
285;DHT22;127;48.770;9.212;2022-09-09T10:51:18;29.20;99.90
285;DHT22;127;48.770;9.212;2022-09-09T10:54:05;29.10;99.90
285;DHT22;127;48.770;9.212;2022-09-09T10:56:39;27.20;99.90
285;DHT22;127;48.770;9.212;2022-09-09T10:59:13;24.60;99.90
285;DHT22;127;48.770;9.212;2022-09-09T11:01:44;25.10;99.90
285;DHT22;127;48.770;9.212;2022-09-09T11:04:19;25.60;99.90
285;DHT22;127;48.770;9.212;2022-09-09T11:06:54;24.90;99.90
285;DHT22;127;48.770;9.212;2022-09-09T11:09:26;25.80;99.90
285;DHT22;127;48.770;9.212;2022-09-09T11:11:57;27.90;99.90
285;DHT22;127;48.770;9.212;2022-09-09T11:14:31;27.80;99.90
285;DHT22;127;48.770;9.212;2022-09-09T11:17:04;27.40;99.90
285;DHT22;127;48.770;9.212;2022-09-09T11:19:36;26.60;99.90
285;DHT22;127;48.770;9.212;2022-09-09T11:22:16;26.40;99.90
285;DHT22;127;48.770;9.212;2022-09-09T11:24:49;26.20;99.90
285;DHT22;127;48.770;9.212;2022-09-09T11:27:23;26.20;99.90
285;DHT22;127;48.770;9.212;2022-09-09T11:30:18;24.90;99.90
285;DHT22;127;48.770;9.212;2022-09-09T11:33:08;23.30;99.90
285;DHT22;127;48.770;9.212;2022-09-09T11:35:50;22.40;99.90
285;DHT22;127;48.770;9.212;2022-09-09T11:38:26;21.60;99.90
285;DHT22;127;48.770;9.212;2022-09-09T11:40:58;21.30;99.90
285;DHT22;127;48.770;9.212;2022-09-09T11:43:31;20.90;99.90
285;DHT22;127;48.770;9.212;2022-09-09T11:46:02;20.70;99.90
285;DHT22;127;48.770;9.212;2022-09-09T11:48:33;20.60;99.90
285;DHT22;127;48.770;9.212;2022-09-09T11:51:06;20.70;99.90
285;DHT22;127;48.770;9.212;2022-09-09T11:53:48;20.80;99.90
285;DHT22;127;48.770;9.212;2022-09-09T11:56:26;21.00;99.90
285;DHT22;127;48.770;9.212;2022-09-09T11:59:04;20.80;99.90
285;DHT22;127;48.770;9.212;2022-09-09T12:01:37;21.10;99.90
285;DHT22;127;48.770;9.212;2022-09-09T12:04:13;21.10;99.90
285;DHT22;127;48.770;9.212;2022-09-09T12:06:44;21.60;99.90
285;DHT22;127;48.770;9.212;2022-09-09T12:09:26;22.40;99.90
285;DHT22;127;48.770;9.212;2022-09-09T12:12:07;24.90;99.90
285;DHT22;127;48.770;9.212;2022-09-09T12:14:59;26.80;99.90
285;DHT22;127;48.770;9.212;2022-09-09T12:17:30;26.30;99.90
285;DHT22;127;48.770;9.212;2022-09-09T12:20:11;24.70;99.90
285;DHT22;127;48.770;9.212;2022-09-09T12:22:56;23.90;99.90
285;DHT22;127;48.770;9.212;2022-09-09T12:25:39;22.40;99.90
285;DHT22;127;48.770;9.212;2022-09-09T12:28:16;22.70;99.90
285;DHT22;127;48.770;9.212;2022-09-09T12:30:52;23.90;99.90
285;DHT22;127;48.770;9.212;2022-09-09T12:33:24;26.00;99.90
285;DHT22;127;48.770;9.212;2022-09-09T12:35:55;27.80;99.90
285;DHT22;127;48.770;9.212;2022-09-09T12:38:30;28.80;99.90
285;DHT22;127;48.770;9.212;2022-09-09T12:41:03;29.40;99.90
285;DHT22;127;48.770;9.212;2022-09-09T12:43:32;29.60;99.90
285;DHT22;127;48.770;9.212;2022-09-09T12:46:02;29.60;99.90
285;DHT22;127;48.770;9.212;2022-09-09T12:48:35;30.00;99.90
285;DHT22;127;48.770;9.212;2022-09-09T12:51:07;29.40;99.90
285;DHT22;127;48.770;9.212;2022-09-09T12:53:42;28.00;99.90
285;DHT22;127;48.770;9.212;2022-09-09T12:56:22;25.80;99.90
285;DHT22;127;48.770;9.212;2022-09-09T12:58:53;23.70;99.90
285;DHT22;127;48.770;9.212;2022-09-09T13:01:24;23.30;99.90
285;DHT22;127;48.770;9.212;2022-09-09T13:03:53;23.30;99.90
285;DHT22;127;48.770;9.212;2022-09-09T13:06:23;23.60;99.90
285;DHT22;127;48.770;9.212;2022-09-09T13:08:53;23.60;99.90
285;DHT22;127;48.770;9.212;2022-09-09T13:11:28;24.90;99.90
285;DHT22;127;48.770;9.212;2022-09-09T13:13:58;24.10;99.90
285;DHT22;127;48.770;9.212;2022-09-09T13:16:29;23.50;99.90
285;DHT22;127;48.770;9.212;2022-09-09T13:18:59;23.30;99.90
285;DHT22;127;48.770;9.212;2022-09-09T13:21:33;23.30;99.90
285;DHT22;127;48.770;9.212;2022-09-09T13:24:04;23.50;99.90
285;DHT22;127;48.770;9.212;2022-09-09T13:26:37;24.30;99.90
285;DHT22;127;48.770;9.212;2022-09-09T13:29:15;25.20;99.90
285;DHT22;127;48.770;9.212;2022-09-09T13:31:46;24.80;99.90
285;DHT22;127;48.770;9.212;2022-09-09T13:34:27;24.20;99.90
285;DHT22;127;48.770;9.212;2022-09-09T13:36:59;24.70;99.90
285;DHT22;127;48.770;9.212;2022-09-09T13:39:32;25.70;99.90
285;DHT22;127;48.770;9.212;2022-09-09T13:42:05;26.90;99.90
285;DHT22;127;48.770;9.212;2022-09-09T13:44:36;27.40;99.90
285;DHT22;127;48.770;9.212;2022-09-09T13:47:18;27.70;99.90
285;DHT22;127;48.770;9.212;2022-09-09T13:49:48;25.70;99.90
285;DHT22;127;48.770;9.212;2022-09-09T13:52:18;25.00;99.90
285;DHT22;127;48.770;9.212;2022-09-09T13:54:48;24.40;99.90
285;DHT22;127;48.770;9.212;2022-09-09T13:57:22;23.70;99.90
285;DHT22;127;48.770;9.212;2022-09-09T13:59:52;23.80;99.90
285;DHT22;127;48.770;9.212;2022-09-09T14:02:21;23.50;99.90
285;DHT22;127;48.770;9.212;2022-09-09T14:04:50;23.50;99.90
285;DHT22;127;48.770;9.212;2022-09-09T14:07:21;24.60;99.90
285;DHT22;127;48.770;9.212;2022-09-09T14:09:50;26.20;99.90
285;DHT22;127;48.770;9.212;2022-09-09T14:12:22;27.10;99.90
285;DHT22;127;48.770;9.212;2022-09-09T14:14:51;27.50;99.90
285;DHT22;127;48.770;9.212;2022-09-09T14:17:19;28.20;99.90
285;DHT22;127;48.770;9.212;2022-09-09T14:19:48;28.00;99.90
285;DHT22;127;48.770;9.212;2022-09-09T14:22:17;28.70;99.90
285;DHT22;127;48.770;9.212;2022-09-09T14:24:45;29.00;99.90
285;DHT22;127;48.770;9.212;2022-09-09T14:27:14;29.30;99.90
285;DHT22;127;48.770;9.212;2022-09-09T14:29:46;29.60;99.90
285;DHT22;127;48.770;9.212;2022-09-09T14:32:15;27.90;99.90
285;DHT22;127;48.770;9.212;2022-09-09T14:34:43;25.50;99.90
285;DHT22;127;48.770;9.212;2022-09-09T14:37:15;24.30;99.90
285;DHT22;127;48.770;9.212;2022-09-09T14:39:43;23.50;99.90
285;DHT22;127;48.770;9.212;2022-09-09T14:42:12;23.00;99.90
285;DHT22;127;48.770;9.212;2022-09-09T14:44:41;23.00;99.90
285;DHT22;127;48.770;9.212;2022-09-09T14:47:12;22.80;99.90
285;DHT22;127;48.770;9.212;2022-09-09T14:49:41;22.80;99.90
285;DHT22;127;48.770;9.212;2022-09-09T14:52:10;22.70;99.90
285;DHT22;127;48.770;9.212;2022-09-09T14:54:39;23.90;99.90
285;DHT22;127;48.770;9.212;2022-09-09T14:57:07;25.20;99.90
285;DHT22;127;48.770;9.212;2022-09-09T14:59:36;25.80;99.90
285;DHT22;127;48.770;9.212;2022-09-09T15:02:05;25.30;99.90
285;DHT22;127;48.770;9.212;2022-09-09T15:04:36;24.80;99.90
285;DHT22;127;48.770;9.212;2022-09-09T15:07:05;23.80;99.90
285;DHT22;127;48.770;9.212;2022-09-09T15:09:33;23.70;99.90
285;DHT22;127;48.770;9.212;2022-09-09T15:12:03;24.20;99.90
285;DHT22;127;48.770;9.212;2022-09-09T15:14:32;24.00;99.90
285;DHT22;127;48.770;9.212;2022-09-09T15:17:00;23.90;99.90
285;DHT22;127;48.770;9.212;2022-09-09T15:19:29;23.80;99.90
285;DHT22;127;48.770;9.212;2022-09-09T15:22:00;23.40;99.90
285;DHT22;127;48.770;9.212;2022-09-09T15:24:30;23.10;99.90
285;DHT22;127;48.770;9.212;2022-09-09T15:26:59;22.70;99.90
285;DHT22;127;48.770;9.212;2022-09-09T15:29:28;22.50;99.90
285;DHT22;127;48.770;9.212;2022-09-09T15:31:57;22.40;99.90
285;DHT22;127;48.770;9.212;2022-09-09T15:34:25;22.40;99.90
285;DHT22;127;48.770;9.212;2022-09-09T15:36:54;22.70;99.90
285;DHT22;127;48.770;9.212;2022-09-09T15:39:28;22.80;99.90
285;DHT22;127;48.770;9.212;2022-09-09T15:41:56;22.60;99.90
285;DHT22;127;48.770;9.212;2022-09-09T15:44:27;22.50;99.90
285;DHT22;127;48.770;9.212;2022-09-09T15:46:55;22.30;99.90
285;DHT22;127;48.770;9.212;2022-09-09T15:49:25;21.90;99.90
285;DHT22;127;48.770;9.212;2022-09-09T15:51:56;21.70;99.90
285;DHT22;127;48.770;9.212;2022-09-09T15:54:32;21.60;99.90
285;DHT22;127;48.770;9.212;2022-09-09T15:57:03;21.30;99.90
285;DHT22;127;48.770;9.212;2022-09-09T15:59:33;21.10;99.90
285;DHT22;127;48.770;9.212;2022-09-09T16:02:02;20.90;99.90
285;DHT22;127;48.770;9.212;2022-09-09T16:04:30;20.90;99.90
285;DHT22;127;48.770;9.212;2022-09-09T16:07:01;20.80;99.90
285;DHT22;127;48.770;9.212;2022-09-09T16:09:33;20.70;99.90
285;DHT22;127;48.770;9.212;2022-09-09T16:12:03;20.70;99.90
285;DHT22;127;48.770;9.212;2022-09-09T16:14:35;20.60;99.90
285;DHT22;127;48.770;9.212;2022-09-09T16:17:05;20.60;99.90
285;DHT22;127;48.770;9.212;2022-09-09T16:19:34;20.70;99.90
285;DHT22;127;48.770;9.212;2022-09-09T16:22:03;20.60;99.90
285;DHT22;127;48.770;9.212;2022-09-09T16:24:35;20.50;99.90
285;DHT22;127;48.770;9.212;2022-09-09T16:27:04;20.60;99.90
285;DHT22;127;48.770;9.212;2022-09-09T16:29:33;20.40;99.90
285;DHT22;127;48.770;9.212;2022-09-09T16:32:02;20.40;99.90
285;DHT22;127;48.770;9.212;2022-09-09T16:34:30;20.30;99.90
285;DHT22;127;48.770;9.212;2022-09-09T16:36:59;20.40;99.90
285;DHT22;127;48.770;9.212;2022-09-09T16:39:28;20.40;99.90
285;DHT22;127;48.770;9.212;2022-09-09T16:41:59;20.50;99.90
285;DHT22;127;48.770;9.212;2022-09-09T16:44:28;20.50;99.90
285;DHT22;127;48.770;9.212;2022-09-09T16:46:57;20.40;99.90
285;DHT22;127;48.770;9.212;2022-09-09T16:49:26;20.20;99.90
285;DHT22;127;48.770;9.212;2022-09-09T16:51:57;19.90;99.90
285;DHT22;127;48.770;9.212;2022-09-09T16:54:26;19.40;99.90
285;DHT22;127;48.770;9.212;2022-09-09T16:56:55;19.50;99.90
285;DHT22;127;48.770;9.212;2022-09-09T16:59:26;19.50;99.90
285;DHT22;127;48.770;9.212;2022-09-09T17:01:57;19.50;99.90
285;DHT22;127;48.770;9.212;2022-09-09T17:04:27;19.30;99.90
285;DHT22;127;48.770;9.212;2022-09-09T17:06:56;19.10;99.90
285;DHT22;127;48.770;9.212;2022-09-09T17:09:26;19.00;99.90
285;DHT22;127;48.770;9.212;2022-09-09T17:11:57;18.80;99.90
285;DHT22;127;48.770;9.212;2022-09-09T17:14:29;18.80;99.90